Time;durP1;ratioP1;P1;durP2;ratioP2;P2;SDS_P1;SDS_P2;PMS_P1;PMS_P2;Temp;Humidity;BMP_temperature;BMP_pressure;BME280_temperature;BME280_humidity;BME280_pressure;Samples;Min_cycle;Max_cycle;Signal;HPM_P1;HPM_P2
2024/04/08 00:01:44;;;;;;;6.13;1.20;;;16.50;73.20;;;;;;5483853;26;19999;-77
2024/04/08 00:04:10;;;;;;;6.50;1.15;;;16.50;50.20;;;;;;5484503;26;20006;-79
2024/04/08 00:06:35;;;;;;;3.42;1.00;;;16.50;50.10;;;;;;5480414;26;20011;-79
2024/04/08 00:09:03;;;;;;;5.82;1.23;;;16.20;99.90;;;;;;5484422;26;20002;-78
2024/04/08 00:11:29;;;;;;;10.02;1.10;;;15.70;99.90;;;;;;5484095;26;19998;-78
2024/04/08 00:13:55;;;;;;;9.48;0.95;;;15.50;99.90;;;;;;5482926;26;20002;-79
2024/04/08 00:16:20;;;;;;;5.72;0.98;;;15.30;99.90;;;;;;5480000;26;20001;-78
2024/04/08 00:18:46;;;;;;;6.85;1.17;;;15.30;99.90;;;;;;5483490;26;19998;-79
2024/04/08 00:21:12;;;;;;;10.65;1.10;;;15.50;99.90;;;;;;5484527;26;20009;-79
2024/04/08 00:23:38;;;;;;;8.80;1.20;;;15.50;99.90;;;;;;5484024;26;20354;-79
2024/04/08 00:26:05;;;;;;;4.00;1.15;;;15.40;99.90;;;;;;5483041;26;20006;-77
2024/04/08 00:28:33;;;;;;;11.63;1.48;;;15.40;99.90;;;;;;5483548;26;19994;-77
2024/04/08 00:31:02;;;;;;;4.93;0.95;;;15.20;99.90;;;;;;5484383;26;20522;-79
2024/04/08 00:33:28;;;;;;;7.68;1.13;;;15.40;99.90;;;;;;5482581;26;20013;-80
2024/04/08 00:35:54;;;;;;;11.52;1.30;;;15.40;99.90;;;;;;5484514;26;20038;-79
2024/04/08 00:38:19;;;;;;;5.75;1.00;;;15.60;99.90;;;;;;5484191;26;19998;-80
2024/04/08 00:40:45;;;;;;;7.18;1.20;;;15.60;99.90;;;;;;5484037;26;20009;-78
2024/04/08 00:43:11;;;;;;;3.08;0.88;;;15.60;99.90;;;;;;5474951;26;20005;-78
2024/04/08 00:45:39;;;;;;;5.30;0.93;;;15.60;99.90;;;;;;5477389;26;19990;-78
2024/04/08 00:48:06;;;;;;;6.53;1.20;;;15.50;99.90;;;;;;5482545;26;19994;-79
2024/04/08 00:50:32;;;;;;;4.75;1.38;;;15.50;99.90;;;;;;5483986;26;20034;-79
2024/04/08 00:52:58;;;;;;;11.02;2.10;;;15.50;99.90;;;;;;5483977;26;19990;-80
2024/04/08 00:55:24;;;;;;;8.07;1.38;;;15.40;99.90;;;;;;5483705;26;20573;-78
2024/04/08 00:57:50;;;;;;;10.15;1.15;;;15.30;99.90;;;;;;5481041;26;20067;-79
2024/04/08 01:00:16;;;;;;;6.00;1.73;;;15.20;99.90;;;;;;5483917;26;20545;-78
2024/04/08 01:02:42;;;;;;;6.03;1.27;;;15.20;99.90;;;;;;5481836;26;20154;-78
2024/04/08 01:05:13;;;;;;;5.45;1.15;;;15.20;99.90;;;;;;5483514;26;20006;-77
2024/04/08 01:07:43;;;;;;;4.53;1.20;;;15.10;99.90;;;;;;5481065;26;20009;-78
2024/04/08 01:10:10;;;;;;;4.30;1.13;;;15.00;99.90;;;;;;5480476;26;20003;-79
2024/04/08 01:12:35;;;;;;;8.15;1.23;;;14.90;99.90;;;;;;5479909;26;20350;-77
2024/04/08 01:15:02;;;;;;;13.65;1.27;;;14.80;99.90;;;;;;5480929;26;19994;-77
2024/04/08 01:17:27;;;;;;;7.47;1.15;;;14.50;99.90;;;;;;5478359;26;19994;-78
2024/04/08 01:19:53;;;;;;;9.02;1.65;;;14.30;1.00;;;;;;5480665;26;19998;-78
2024/04/08 01:22:19;;;;;;;4.47;1.25;;;14.00;66.60;;;;;;5483733;26;19998;-79
2024/04/08 01:24:44;;;;;;;6.80;1.55;;;13.80;90.90;;;;;;5483724;26;20055;-79
2024/04/08 01:27:10;;;;;;;11.25;1.33;;;13.80;99.90;;;;;;5481178;26;20474;-79
2024/04/08 01:29:36;;;;;;;6.75;1.35;;;13.60;99.90;;;;;;5480472;26;19993;-78
2024/04/08 01:32:02;;;;;;;5.30;1.35;;;13.60;99.90;;;;;;5479148;26;20006;-79
2024/04/08 01:34:28;;;;;;;10.50;1.35;;;13.60;99.90;;;;;;5481547;26;19998;-78
2024/04/08 01:36:54;;;;;;;8.57;1.30;;;13.70;92.20;;;;;;5482760;26;20054;-79
2024/04/08 01:39:19;;;;;;;11.52;1.63;;;13.60;91.80;;;;;;5481351;26;20347;-78
2024/04/08 01:41:45;;;;;;;4.28;1.70;;;13.70;45.20;;;;;;5483025;26;20063;-78
2024/04/08 01:44:11;;;;;;;5.80;1.30;;;13.70;28.10;;;;;;5483022;26;20013;-78
2024/04/08 01:46:37;;;;;;;7.55;1.30;;;13.70;30.40;;;;;;5481979;26;20002;-78
2024/04/08 01:49:03;;;;;;;7.47;1.42;;;13.70;41.70;;;;;;5480600;26;20009;-77
2024/04/08 01:51:28;;;;;;;9.35;2.40;;;13.70;44.40;;;;;;5482597;26;20070;-78
2024/04/08 01:53:54;;;;;;;7.13;1.40;;;13.70;22.20;;;;;;5482567;26;20006;-77
2024/04/08 01:56:20;;;;;;;11.45;1.60;;;13.70;1.60;;;;;;5482439;26;20005;-79
2024/04/08 01:58:46;;;;;;;7.57;1.48;;;13.80;1.00;;;;;;5482213;26;20030;-78
2024/04/08 02:01:12;;;;;;;10.20;1.40;;;14.00;1.00;;;;;;5482430;26;20074;-77
2024/04/08 02:03:38;;;;;;;10.80;1.75;;;13.90;1.00;;;;;;5480163;26;20268;-76
2024/04/08 02:06:03;;;;;;;10.07;1.48;;;13.70;1.00;;;;;;5482816;26;20458;-77
2024/04/08 02:08:29;;;;;;;12.30;2.08;;;14.00;99.90;;;;;;5482523;26;20010;-77
2024/04/08 02:10:55;;;;;;;7.47;1.73;;;13.40;68.10;;;;;;5482493;26;20444;-78
2024/04/08 02:13:20;;;;;;;4.97;1.38;;;12.90;99.90;;;;;;5482439;26;20016;-78
2024/04/08 02:15:46;;;;;;;5.93;1.30;;;12.80;99.90;;;;;;5482528;26;20013;-78
2024/04/08 02:18:11;;;;;;;6.80;1.67;;;12.70;99.90;;;;;;5480970;26;20008;-78
2024/04/08 02:20:38;;;;;;;8.98;1.52;;;12.70;99.90;;;;;;5484017;26;20403;-77
2024/04/08 02:23:03;;;;;;;6.75;1.50;;;12.90;99.90;;;;;;5484475;26;20002;-78
2024/04/08 02:25:29;;;;;;;9.07;1.63;;;13.00;67.00;;;;;;5460788;26;20355;-78
2024/04/08 02:27:55;;;;;;;5.82;1.58;;;13.40;1.00;;;;;;5485462;26;20002;-78
2024/04/08 02:30:21;;;;;;;6.60;1.55;;;13.40;1.00;;;;;;5485176;26;19998;-78
2024/04/08 02:32:46;;;;;;;5.38;1.33;;;13.70;99.90;;;;;;5484344;26;19994;-79
2024/04/08 02:35:12;;;;;;;9.70;2.10;;;13.70;99.90;;;;;;5485933;26;20039;-78
2024/04/08 02:37:38;;;;;;;7.03;1.33;;;13.70;99.90;;;;;;5485767;26;19997;-78
2024/04/08 02:40:04;;;;;;;11.95;2.35;;;13.70;99.90;;;;;;5485410;26;20107;-80
2024/04/08 02:42:31;;;;;;;6.53;1.75;;;13.60;99.90;;;;;;5483583;26;19994;-79
2024/04/08 02:44:56;;;;;;;6.85;1.70;;;13.70;99.90;;;;;;5485749;26;20594;-80
2024/04/08 02:47:22;;;;;;;4.72;1.50;;;13.40;1.00;;;;;;5484510;26;19990;-80
2024/04/08 02:49:49;;;;;;;7.55;1.58;;;13.30;1.00;;;;;;5485263;26;19994;-80
2024/04/08 02:52:14;;;;;;;5.90;1.30;;;13.30;1.00;;;;;;5485833;26;20013;-80
2024/04/08 02:54:40;;;;;;;8.82;2.08;;;13.30;1.00;;;;;;5485430;26;19994;-80
2024/04/08 02:57:06;;;;;;;10.70;2.38;;;12.80;8.60;;;;;;5464349;26;19998;-79
2024/04/08 02:59:31;;;;;;;8.68;2.20;;;12.40;92.10;;;;;;5484789;26;20002;-79
2024/04/08 03:01:57;;;;;;;12.35;1.50;;;12.10;99.90;;;;;;5484776;26;19998;-80
2024/04/08 03:04:23;;;;;;;9.82;1.60;;;11.90;99.90;;;;;;5484604;26;20021;-77
2024/04/08 03:06:48;;;;;;;5.85;1.60;;;11.70;99.90;;;;;;5485848;26;20096;-79
2024/04/08 03:09:14;;;;;;;7.05;2.33;;;11.70;99.90;;;;;;5485620;26;19998;-80
2024/04/08 03:11:40;;;;;;;8.95;1.98;;;11.70;99.90;;;;;;5484839;26;20665;-80
2024/04/08 03:14:05;;;;;;;4.68;1.65;;;11.70;99.90;;;;;;5483622;26;20074;-78
2024/04/08 03:16:31;;;;;;;6.40;2.28;;;11.70;99.90;;;;;;5483623;26;20674;-78
2024/04/08 03:18:57;;;;;;;10.75;1.70;;;11.60;99.90;;;;;;5484572;26;19998;-79
2024/04/08 03:21:22;;;;;;;3.55;1.45;;;11.50;99.90;;;;;;5484541;26;20009;-78
2024/04/08 03:23:48;;;;;;;5.80;1.80;;;11.30;99.90;;;;;;5485046;26;20030;-79
2024/04/08 03:26:15;;;;;;;6.03;1.48;;;11.20;99.90;;;;;;5485356;26;20351;-78
2024/04/08 03:28:41;;;;;;;9.50;1.67;;;11.00;99.90;;;;;;5484699;26;20002;-79
2024/04/08 03:31:07;;;;;;;6.40;2.30;;;10.70;99.90;;;;;;5482394;26;20030;-78
2024/04/08 03:33:33;;;;;;;10.27;1.55;;;10.60;99.90;;;;;;5483461;26;19998;-79
2024/04/08 03:36:00;;;;;;;1.42;1.30;;;10.50;99.90;;;;;;5485241;26;20026;-79
2024/04/08 03:38:26;;;;;;;8.00;2.00;;;10.60;99.90;;;;;;5484677;26;20378;-79
2024/04/08 03:41:05;;;;;;;8.80;2.42;;;11.00;99.90;;;;;;5485326;26;20005;-78
2024/04/08 03:43:31;;;;;;;6.72;1.83;;;11.10;99.90;;;;;;5485037;26;20013;-79
2024/04/08 03:45:57;;;;;;;7.40;2.28;;;11.10;99.90;;;;;;5485026;26;20005;-79
2024/04/08 03:48:24;;;;;;;8.52;2.67;;;11.10;99.90;;;;;;5482437;26;19994;-79
2024/04/08 03:50:49;;;;;;;6.03;2.05;;;11.10;99.90;;;;;;5481096;26;20005;-78
2024/04/08 03:53:15;;;;;;;4.22;2.00;;;11.10;99.90;;;;;;5479392;26;19998;-77
2024/04/08 03:55:41;;;;;;;3.47;2.03;;;10.70;99.90;;;;;;5484349;26;20717;-78
2024/04/08 03:58:07;;;;;;;8.77;2.45;;;10.80;99.90;;;;;;5483654;26;20006;-78
2024/04/08 04:00:34;;;;;;;8.95;2.20;;;10.80;99.90;;;;;;5483693;26;20008;-76
2024/04/08 04:02:59;;;;;;;7.65;2.15;;;10.80;99.90;;;;;;5465937;26;20006;-79
2024/04/08 04:05:25;;;;;;;3.88;2.03;;;10.80;99.90;;;;;;5482320;26;20009;-78
2024/04/08 04:07:51;;;;;;;12.63;2.67;;;10.80;99.90;;;;;;5484374;26;19998;-79
2024/04/08 04:10:20;;;;;;;7.63;2.45;;;10.70;99.90;;;;;;5483940;26;20348;-77
2024/04/08 04:12:45;;;;;;;5.22;2.08;;;10.70;99.90;;;;;;5483997;26;20067;-78
2024/04/08 04:15:14;;;;;;;8.73;2.42;;;10.70;99.90;;;;;;5484150;26;20464;-77
2024/04/08 04:17:41;;;;;;;10.88;3.20;;;10.40;99.90;;;;;;5482841;26;19998;-79
2024/04/08 04:20:10;;;;;;;5.22;2.35;;;10.10;99.90;;;;;;5484364;26;20077;-77
2024/04/08 04:22:36;;;;;;;10.32;2.30;;;10.30;99.90;;;;;;5482157;26;20328;-78
2024/04/08 04:25:03;;;;;;;8.10;2.35;;;10.50;99.90;;;;;;5484299;26;20008;-78
2024/04/08 04:27:28;;;;;;;9.27;3.10;;;10.70;99.90;;;;;;5484149;26;20005;-77
2024/04/08 04:29:54;;;;;;;5.60;2.25;;;10.70;99.90;;;;;;5484354;26;20013;-79
2024/04/08 04:32:19;;;;;;;14.40;2.05;;;10.70;99.90;;;;;;5483721;26;20463;-79
2024/04/08 04:34:45;;;;;;;7.25;2.47;;;10.60;99.90;;;;;;5483980;26;19998;-79
2024/04/08 04:37:11;;;;;;;8.10;2.38;;;10.60;99.90;;;;;;5484583;26;20514;-79
2024/04/08 04:39:37;;;;;;;9.30;2.95;;;10.60;99.90;;;;;;5480376;26;20010;-78
2024/04/08 04:42:03;;;;;;;8.52;2.33;;;10.60;99.90;;;;;;5483358;26;19998;-78
2024/04/08 04:44:29;;;;;;;9.52;2.15;;;10.60;99.90;;;;;;5482719;26;20032;-81
2024/04/08 04:46:54;;;;;;;3.00;1.73;;;10.30;99.90;;;;;;5482874;26;20006;-81
2024/04/08 04:49:20;;;;;;;2.67;1.95;;;9.90;99.90;;;;;;5482592;26;20036;-82
2024/04/08 04:51:46;;;;;;;10.88;2.45;;;9.80;99.90;;;;;;5483159;26;20070;-80
2024/04/08 04:54:11;;;;;;;9.77;2.63;;;9.70;99.90;;;;;;5483345;26;20024;-80
2024/04/08 04:56:37;;;;;;;8.05;2.63;;;10.00;99.90;;;;;;5473977;26;20463;-80
2024/04/08 04:59:03;;;;;;;16.20;3.00;;;10.20;99.90;;;;;;5481491;26;20030;-80
2024/04/08 05:01:28;;;;;;;9.48;2.67;;;10.20;99.90;;;;;;5483064;26;20012;-81
2024/04/08 05:03:54;;;;;;;14.32;2.88;;;10.30;99.90;;;;;;5482412;26;19994;-81
2024/04/08 05:06:19;;;;;;;8.80;2.67;;;10.20;99.90;;;;;;5481210;26;20048;-80
2024/04/08 05:08:45;;;;;;;12.55;3.28;;;10.30;99.90;;;;;;5481957;26;19994;-79
2024/04/08 05:11:11;;;;;;;6.35;3.70;;;10.30;99.90;;;;;;5482684;26;20748;-81
2024/04/08 05:13:36;;;;;;;10.05;2.75;;;10.30;99.90;;;;;;5474642;26;20002;-81
2024/04/08 05:16:04;;;;;;;11.40;3.30;;;10.20;99.90;;;;;;5482343;26;20006;-80
2024/04/08 05:18:30;;;;;;;5.53;2.60;;;10.30;99.90;;;;;;5482173;26;20467;-80
2024/04/08 05:21:00;;;;;;;7.43;2.42;;;10.10;99.90;;;;;;5480729;26;20073;-79
2024/04/08 05:23:26;;;;;;;15.23;2.88;;;9.90;99.90;;;;;;5465247;26;20045;-79
2024/04/08 05:25:53;;;;;;;11.52;3.22;;;9.90;99.90;;;;;;5483909;26;20021;-78
2024/04/08 05:28:20;;;;;;;12.50;3.38;;;10.00;99.90;;;;;;5482000;26;20487;-80
2024/04/08 05:30:47;;;;;;;12.50;3.15;;;10.20;99.90;;;;;;5482826;26;20491;-79
2024/04/08 05:33:13;;;;;;;7.85;3.50;;;10.40;99.90;;;;;;5489779;26;20002;-78
2024/04/08 05:35:46;;;;;;;10.90;3.95;;;10.60;99.90;;;;;;5495650;26;19994;-80
2024/04/08 05:38:12;;;;;;;4.25;2.80;;;10.80;99.90;;;;;;5478686;26;20009;-88
2024/04/08 05:40:39;;;;;;;10.35;3.30;;;10.80;99.90;;;;;;5495411;26;20005;-84
2024/04/08 05:43:05;;;;;;;10.05;2.97;;;10.80;99.90;;;;;;5502143;26;20002;-84
2024/04/08 05:45:32;;;;;;;6.68;2.00;;;10.70;99.90;;;;;;5487034;26;20327;-81
2024/04/08 05:47:58;;;;;;;5.97;2.30;;;10.40;99.90;;;;;;5489675;26;19995;-87
2024/04/08 05:50:23;;;;;;;7.03;2.80;;;10.40;99.90;;;;;;5477080;26;20051;-82
2024/04/08 05:52:53;;;;;;;5.68;2.47;;;10.40;99.90;;;;;;5489310;26;20002;-84
2024/04/08 05:55:19;;;;;;;3.92;2.45;;;10.60;99.90;;;;;;5473790;26;20336;-85
2024/04/08 05:57:45;;;;;;;8.70;2.50;;;10.70;99.90;;;;;;5482055;26;20465;-79
2024/04/08 06:00:11;;;;;;;6.70;2.38;;;10.80;99.90;;;;;;5484284;26;19995;-80
2024/04/08 06:02:37;;;;;;;5.97;2.95;;;10.90;99.90;;;;;;5482470;26;19998;-81
2024/04/08 06:05:03;;;;;;;7.80;2.58;;;11.00;99.90;;;;;;5488634;26;20052;-80
2024/04/08 06:07:29;;;;;;;10.38;2.60;;;11.30;99.90;;;;;;5489932;25;20010;-81
2024/04/08 06:09:55;;;;;;;12.30;3.67;;;11.50;99.90;;;;;;5483320;26;20002;-80
2024/04/08 06:12:21;;;;;;;10.65;2.00;;;11.70;99.90;;;;;;5482426;26;20049;-80
2024/04/08 06:14:47;;;;;;;10.68;2.00;;;11.80;99.90;;;;;;5482559;26;20559;-80
2024/04/08 06:17:13;;;;;;;10.00;2.95;;;12.00;99.90;;;;;;5480251;26;20515;-82
2024/04/08 06:19:38;;;;;;;4.53;1.92;;;12.00;99.90;;;;;;5482695;26;20038;-79
2024/04/08 06:22:04;;;;;;;6.40;2.05;;;12.20;99.90;;;;;;5481513;26;20402;-79
2024/04/08 06:24:29;;;;;;;4.47;1.60;;;12.10;99.90;;;;;;5483145;26;19990;-79
2024/04/08 06:26:55;;;;;;;4.47;1.67;;;12.20;99.90;;;;;;5481177;26;20066;-79
2024/04/08 06:29:21;;;;;;;9.55;2.40;;;12.20;99.90;;;;;;5481917;26;19990;-80
2024/04/08 06:31:46;;;;;;;5.72;2.10;;;12.50;99.90;;;;;;5480575;26;20015;-79
2024/04/08 06:34:12;;;;;;;6.10;2.10;;;12.60;99.90;;;;;;5479895;26;20002;-81
2024/04/08 06:36:38;;;;;;;5.43;2.05;;;12.60;99.90;;;;;;5482070;26;20356;-80
2024/04/08 06:39:04;;;;;;;8.75;2.03;;;12.80;99.90;;;;;;5483121;26;19998;-77
2024/04/08 06:41:29;;;;;;;7.35;2.10;;;13.00;99.90;;;;;;5482373;26;20016;-80
2024/04/08 06:43:55;;;;;;;6.38;1.77;;;13.10;99.90;;;;;;5482705;26;19994;-80
2024/04/08 06:46:21;;;;;;;5.57;1.88;;;13.10;99.90;;;;;;5481806;26;20782;-81
2024/04/08 06:48:46;;;;;;;6.78;2.30;;;13.30;99.90;;;;;;5480627;26;19998;-79
2024/04/08 06:51:12;;;;;;;8.85;2.70;;;13.60;99.90;;;;;;5482803;26;20005;-80
2024/04/08 06:53:37;;;;;;;5.20;1.88;;;13.70;99.90;;;;;;5481925;26;20478;-80
2024/04/08 06:56:04;;;;;;;3.15;1.90;;;13.90;88.50;;;;;;5482253;26;20568;-79
2024/04/08 06:58:30;;;;;;;3.97;1.77;;;14.20;48.50;;;;;;5474738;26;20478;-80
2024/04/08 07:00:56;;;;;;;4.28;1.70;;;14.30;31.40;;;;;;5482100;26;20398;-79
2024/04/08 07:03:22;;;;;;;12.38;2.05;;;14.50;24.70;;;;;;5480493;26;19990;-80
2024/04/08 07:05:47;;;;;;;4.80;1.85;;;14.50;14.20;;;;;;5463653;26;20380;-80
2024/04/08 07:08:13;;;;;;;4.75;1.90;;;14.50;1.00;;;;;;5484470;26;20515;-79
2024/04/08 07:10:40;;;;;;;12.48;1.80;;;14.40;1.00;;;;;;5484956;26;19998;-80
2024/04/08 07:13:06;;;;;;;10.15;1.67;;;14.50;1.00;;;;;;5485127;26;20013;-80
2024/04/08 07:15:32;;;;;;;6.95;1.65;;;14.70;21.80;;;;;;5485441;26;20464;-80
2024/04/08 07:17:58;;;;;;;7.60;1.80;;;14.80;6.30;;;;;;5484033;26;20002;-80
2024/04/08 07:20:24;;;;;;;7.63;1.65;;;15.00;1.00;;;;;;5485742;26;20074;-78
2024/04/08 07:22:49;;;;;;;5.50;2.00;;;15.00;1.00;;;;;;5480074;26;20025;-79
2024/04/08 07:25:16;;;;;;;5.40;2.13;;;14.90;1.00;;;;;;5482676;26;19998;-79
2024/04/08 07:27:42;;;;;;;5.07;2.00;;;14.90;1.00;;;;;;5485112;26;20008;-80
2024/04/08 07:30:08;;;;;;;15.60;2.10;;;15.00;1.00;;;;;;5485407;26;19998;-80
2024/04/08 07:32:34;;;;;;;5.95;1.83;;;15.00;1.00;;;;;;5483927;26;20002;-79
2024/04/08 07:34:59;;;;;;;6.47;1.70;;;15.10;11.20;;;;;;5485603;26;20074;-80
2024/04/08 07:37:28;;;;;;;5.28;1.92;;;15.30;1.00;;;;;;5485047;26;20006;-79
2024/04/08 07:39:53;;;;;;;5.93;1.70;;;15.50;1.00;;;;;;5485578;26;20002;-79
2024/04/08 07:42:19;;;;;;;1.80;1.38;;;15.80;1.00;;;;;;5482749;26;20005;-80
2024/04/08 07:44:45;;;;;;;8.02;2.47;;;15.90;1.00;;;;;;5484441;26;20253;-79
2024/04/08 07:47:10;;;;;;;8.23;2.88;;;15.80;99.90;;;;;;5483560;26;19994;-79
2024/04/08 07:49:36;;;;;;;8.70;2.17;;;15.80;1.00;;;;;;5483749;26;20013;-79
2024/04/08 07:52:04;;;;;;;7.82;2.03;;;15.80;47.70;;;;;;5484606;26;20065;-80
2024/04/08 07:54:31;;;;;;;10.52;2.03;;;15.90;99.90;;;;;;5484906;26;20010;-79
2024/04/08 07:56:56;;;;;;;4.18;1.58;;;16.00;99.90;;;;;;5484711;26;20002;-79
2024/04/08 07:59:22;;;;;;;10.15;2.03;;;16.20;1.00;;;;;;5472724;26;20030;-79
2024/04/08 08:01:49;;;;;;;14.13;1.90;;;16.30;99.90;;;;;;5483471;26;20035;-79
2024/04/08 08:04:15;;;;;;;9.43;1.65;;;16.30;1.00;;;;;;5484249;26;20410;-79
2024/04/08 08:06:41;;;;;;;5.97;1.70;;;16.30;99.90;;;;;;5484541;26;20001;-79
2024/04/08 08:09:07;;;;;;;9.63;2.10;;;16.30;99.90;;;;;;5484529;26;19990;-79
2024/04/08 08:11:33;;;;;;;7.70;2.00;;;16.60;99.90;;;;;;5484637;26;19998;-79
2024/04/08 08:13:59;;;;;;;4.65;1.65;;;16.80;99.90;;;;;;5484645;26;20697;-79
2024/04/08 08:16:27;;;;;;;6.85;1.80;;;16.90;99.90;;;;;;5482032;26;20043;-79
2024/04/08 08:18:52;;;;;;;7.75;2.25;;;17.10;99.90;;;;;;5484344;26;20002;-77
2024/04/08 08:21:18;;;;;;;14.30;2.30;;;17.00;99.90;;;;;;5484198;26;20012;-78
2024/04/08 08:23:44;;;;;;;6.07;1.75;;;16.80;99.90;;;;;;5483727;26;20439;-79
2024/04/08 08:26:09;;;;;;;9.60;2.10;;;16.70;99.90;;;;;;5484295;26;19998;-80
2024/04/08 08:28:35;;;;;;;7.07;1.92;;;17.10;99.90;;;;;;5483751;26;20583;-79
2024/04/08 08:31:01;;;;;;;10.00;1.80;;;17.60;99.90;;;;;;5483116;26;19990;-78
2024/04/08 08:33:26;;;;;;;7.57;1.80;;;17.50;99.90;;;;;;5482259;26;19998;-78
2024/04/08 08:35:52;;;;;;;6.93;1.38;;;17.20;99.90;;;;;;5483845;26;19994;-78
2024/04/08 08:38:19;;;;;;;5.47;2.13;;;17.00;99.90;;;;;;5483785;26;20008;-78
2024/04/08 08:40:49;;;;;;;12.27;1.30;;;17.00;99.90;;;;;;5483816;26;20403;-77
2024/04/08 08:43:15;;;;;;;10.15;1.23;;;17.10;99.90;;;;;;5483917;26;20002;-78
2024/04/08 08:45:46;;;;;;;12.60;2.72;;;17.40;99.90;;;;;;5483756;26;20012;-78
2024/04/08 08:48:12;;;;;;;4.90;1.35;;;17.60;99.90;;;;;;5480501;26;19998;-78
2024/04/08 08:50:41;;;;;;;7.97;1.70;;;17.80;99.90;;;;;;5483837;26;20075;-79
2024/04/08 08:53:08;;;;;;;10.63;1.52;;;17.50;99.90;;;;;;5484351;26;20012;-79
2024/04/08 08:55:34;;;;;;;14.40;1.92;;;17.60;99.90;;;;;;5483774;26;20013;-78
2024/04/08 08:58:00;;;;;;;12.63;1.33;;;17.40;99.90;;;;;;5483759;26;20585;-79
2024/04/08 09:00:25;;;;;;;6.85;1.60;;;17.40;99.90;;;;;;5483795;26;20017;-79
2024/04/08 09:02:51;;;;;;;10.20;1.67;;;17.20;99.90;;;;;;5482803;26;19994;-79
2024/04/08 09:05:17;;;;;;;8.93;1.30;;;17.00;99.90;;;;;;5482363;26;20114;-79
2024/04/08 09:07:43;;;;;;;8.05;1.35;;;17.10;99.90;;;;;;5481671;26;20834;-79
2024/04/08 09:10:08;;;;;;;23.45;1.50;;;17.20;99.90;;;;;;5484348;26;20022;-78
2024/04/08 09:12:34;;;;;;;7.38;1.77;;;17.20;99.90;;;;;;5482889;26;20066;-79
2024/04/08 09:15:00;;;;;;;9.18;1.10;;;17.20;99.90;;;;;;5483874;26;20466;-79
2024/04/08 09:17:26;;;;;;;4.22;1.08;;;17.40;99.90;;;;;;5481979;26;20034;-78
2024/04/08 09:19:52;;;;;;;9.80;1.40;;;17.40;99.90;;;;;;5483407;26;20052;-79
2024/04/08 09:22:17;;;;;;;5.95;1.75;;;17.80;99.90;;;;;;5482051;26;20562;-78
2024/04/08 09:24:43;;;;;;;4.50;1.13;;;18.10;99.90;;;;;;5482806;26;20050;-78
2024/04/08 09:27:10;;;;;;;6.10;1.40;;;18.20;99.90;;;;;;5482873;26;20582;-79
2024/04/08 09:29:35;;;;;;;10.68;1.55;;;18.60;99.90;;;;;;5482064;26;20070;-77
2024/04/08 09:32:01;;;;;;;7.03;1.27;;;19.30;99.90;;;;;;5482161;26;19998;-79
2024/04/08 09:34:28;;;;;;;10.20;1.85;;;19.30;99.90;;;;;;5482923;26;20571;-78
2024/04/08 09:36:57;;;;;;;7.75;1.20;;;19.30;99.90;;;;;;5481996;26;20399;-79
2024/04/08 09:39:25;;;;;;;6.95;2.17;;;19.20;99.90;;;;;;5483509;26;19994;-77
2024/04/08 09:41:53;;;;;;;8.10;1.60;;;18.90;99.90;;;;;;5482407;26;20495;-78
2024/04/08 09:44:20;;;;;;;7.93;1.48;;;18.90;99.90;;;;;;5483142;26;20010;-79
2024/04/08 09:46:46;;;;;;;4.05;1.17;;;18.70;99.90;;;;;;5481852;26;20038;-78
2024/04/08 09:49:12;;;;;;;10.27;1.50;;;18.70;99.90;;;;;;5482955;26;20443;-77
2024/04/08 09:51:42;;;;;;;5.75;1.00;;;18.90;99.90;;;;;;5475181;26;20013;-77
2024/04/08 09:54:11;;;;;;;6.88;1.60;;;18.90;99.90;;;;;;5475792;26;20359;-77
2024/04/08 09:56:38;;;;;;;7.22;1.65;;;19.10;99.90;;;;;;5482618;26;20038;-77
2024/04/08 09:59:19;;;;;;;4.15;1.02;;;19.60;99.90;;;;;;5482271;26;19994;-78
2024/04/08 10:01:45;;;;;;;9.30;1.88;;;19.50;99.90;;;;;;5482022;26;20014;-75
2024/04/08 10:04:36;;;;;;;6.97;2.05;;;19.50;99.90;;;;;;5482098;26;20009;-78
2024/04/08 10:07:04;;;;;;;6.38;1.50;;;19.50;99.90;;;;;;5482786;26;20167;-78
2024/04/08 10:09:29;;;;;;;9.90;1.13;;;19.60;99.90;;;;;;5480757;26;20436;-79
2024/04/08 10:11:55;;;;;;;10.65;1.98;;;19.60;99.90;;;;;;5482138;26;20153;-79
2024/04/08 10:14:27;;;;;;;11.27;1.13;;;19.70;99.90;;;;;;5480623;26;20010;-78
2024/04/08 10:16:53;;;;;;;8.50;1.20;;;19.50;99.90;;;;;;5482022;26;20414;-77
2024/04/08 10:19:21;;;;;;;5.90;1.45;;;19.40;99.90;;;;;;5465323;26;20014;-77
2024/04/08 10:21:51;;;;;;;6.55;1.27;;;19.50;99.90;;;;;;5482289;26;20368;-78
2024/04/08 10:24:31;;;;;;;10.20;1.10;;;19.80;99.90;;;;;;5482664;26;20002;-77
2024/04/08 10:27:04;;;;;;;5.57;1.35;;;20.40;99.90;;;;;;5482720;26;19998;-78
2024/04/08 10:29:33;;;;;;;5.68;1.10;;;21.00;99.90;;;;;;5482328;26;20455;-78
2024/04/08 10:31:59;;;;;;;10.40;1.33;;;21.40;99.90;;;;;;5479940;26;20002;-78
2024/04/08 10:34:25;;;;;;;9.80;1.48;;;20.80;22.50;;;;;;5481703;26;20067;-77
2024/04/08 10:36:53;;;;;;;8.77;1.60;;;20.60;99.90;;;;;;5481890;26;20043;-79
2024/04/08 10:39:26;;;;;;;12.93;1.73;;;20.30;90.60;;;;;;5481852;26;20002;-76
2024/04/08 10:41:56;;;;;;;9.20;1.50;;;20.80;70.00;;;;;;5485509;26;19994;-76
2024/04/08 10:44:22;;;;;;;13.55;2.22;;;21.10;52.50;;;;;;5485636;26;20046;-78
2024/04/08 10:46:47;;;;;;;9.18;1.35;;;21.80;90.80;;;;;;5482494;26;20062;-77
2024/04/08 10:49:13;;;;;;;9.65;1.38;;;21.70;1.00;;;;;;5485156;26;19990;-77
2024/04/08 10:51:39;;;;;;;10.35;1.65;;;21.90;22.40;;;;;;5485141;26;20066;-77
2024/04/08 10:54:04;;;;;;;11.60;1.40;;;22.40;1.00;;;;;;5485700;26;20515;-76
2024/04/08 10:56:30;;;;;;;12.10;1.00;;;22.30;1.00;;;;;;5482644;26;20393;-78
2024/04/08 10:58:56;;;;;;;7.40;1.35;;;22.20;42.50;;;;;;5485820;26;19998;-80
2024/04/08 11:01:22;;;;;;;8.60;1.48;;;22.30;99.90;;;;;;5477141;26;20010;-77
2024/04/08 11:03:48;;;;;;;7.40;1.30;;;22.40;1.00;;;;;;5474664;26;20042;-77
2024/04/08 11:06:14;;;;;;;10.02;1.23;;;22.50;12.90;;;;;;5485927;26;20009;-77
2024/04/08 11:08:40;;;;;;;11.85;1.73;;;21.50;1.00;;;;;;5485672;26;20012;-77
2024/04/08 11:11:06;;;;;;;13.52;2.15;;;21.40;24.10;;;;;;5485462;26;20696;-75
2024/04/08 11:13:32;;;;;;;13.60;2.85;;;21.10;31.30;;;;;;5483343;26;20004;-77
2024/04/08 11:15:58;;;;;;;13.50;2.42;;;20.80;55.50;;;;;;5485080;26;20071;-77
2024/04/08 11:18:24;;;;;;;9.35;1.33;;;21.30;1.00;;;;;;5475870;26;19991;-77
2024/04/08 11:20:50;;;;;;;7.72;1.70;;;21.90;1.00;;;;;;5475139;26;20005;-77
2024/04/08 11:23:19;;;;;;;9.38;0.98;;;22.90;12.60;;;;;;5485017;26;19998;-77
2024/04/08 11:25:45;;;;;;;12.60;1.25;;;22.70;5.60;;;;;;5484247;26;19990;-76
2024/04/08 11:28:11;;;;;;;9.13;1.35;;;22.90;1.00;;;;;;5483149;26;20030;-76
2024/04/08 11:30:37;;;;;;;9.80;1.42;;;22.80;99.90;;;;;;5484798;26;20002;-77
2024/04/08 11:33:03;;;;;;;13.70;3.65;;;22.40;99.90;;;;;;5483487;26;19998;-76
2024/04/08 11:35:29;;;;;;;9.98;1.98;;;22.80;99.90;;;;;;5484928;26;20472;-77
2024/04/08 11:37:55;;;;;;;8.45;1.95;;;22.80;99.90;;;;;;5484987;26;20070;-77
2024/04/08 11:40:20;;;;;;;12.98;2.53;;;22.80;72.30;;;;;;5484916;26;20061;-76
2024/04/08 11:42:46;;;;;;;12.70;1.50;;;22.80;99.90;;;;;;5484404;26;20009;-77
2024/04/08 11:45:12;;;;;;;5.28;1.35;;;22.60;99.90;;;;;;5483364;26;19990;-77
2024/04/08 11:47:38;;;;;;;13.75;1.52;;;22.50;29.60;;;;;;5483184;26;20001;-76
2024/04/08 11:50:04;;;;;;;10.90;2.10;;;22.20;1.00;;;;;;5484745;26;20455;-76
2024/04/08 11:52:30;;;;;;;13.48;1.50;;;21.50;14.90;;;;;;5483673;26;19990;-77
2024/04/08 11:54:55;;;;;;;12.75;1.83;;;21.70;57.20;;;;;;5484825;26;20031;-76
2024/04/08 11:57:21;;;;;;;8.00;1.45;;;21.70;1.00;;;;;;5484134;26;19995;-76
2024/04/08 11:59:47;;;;;;;10.10;0.95;;;21.40;99.90;;;;;;5482224;26;20450;-76
2024/04/08 12:02:13;;;;;;;13.77;1.23;;;21.10;36.30;;;;;;5482987;26;20008;-77
2024/04/08 12:04:43;;;;;;;11.35;1.65;;;20.80;80.50;;;;;;5484069;26;19998;-78
2024/04/08 12:07:09;;;;;;;6.32;1.20;;;20.80;99.90;;;;;;5484275;26;20009;-77
2024/04/08 12:09:36;;;;;;;11.15;1.10;;;20.50;99.90;;;;;;5484664;26;19998;-77
2024/04/08 12:12:02;;;;;;;21.52;1.85;;;20.60;99.90;;;;;;5484295;26;20014;-76
2024/04/08 12:14:28;;;;;;;8.60;1.50;;;21.90;99.90;;;;;;5482666;26;20322;-77
2024/04/08 12:16:54;;;;;;;15.68;1.35;;;22.40;99.90;;;;;;5483209;26;19998;-76
2024/04/08 12:19:19;;;;;;;9.52;1.23;;;22.20;1.00;;;;;;5483887;26;20384;-77
2024/04/08 12:21:45;;;;;;;9.25;1.50;;;22.30;99.90;;;;;;5484515;26;19994;-77
2024/04/08 12:24:10;;;;;;;8.00;1.27;;;22.50;99.90;;;;;;5475563;26;19994;-77
2024/04/08 12:26:36;;;;;;;13.52;1.20;;;22.80;99.90;;;;;;5484878;26;20460;-77
2024/04/08 12:29:03;;;;;;;13.13;1.27;;;23.10;99.90;;;;;;5485029;26;19994;-77
2024/04/08 12:31:28;;;;;;;11.55;1.73;;;24.30;99.90;;;;;;5482378;26;20025;-78
2024/04/08 12:33:54;;;;;;;5.07;1.15;;;25.30;91.90;;;;;;5483912;26;20002;-77
2024/04/08 12:36:20;;;;;;;8.10;0.90;;;25.80;51.50;;;;;;5485076;26;20010;-77
2024/04/08 12:38:45;;;;;;;8.45;1.10;;;26.10;99.90;;;;;;5484453;26;20142;-77
2024/04/08 12:41:11;;;;;;;13.75;2.55;;;25.80;99.90;;;;;;5484727;26;20010;-78